Time;durP1;ratioP1;P1;durP2;ratioP2;P2;SDS_P1;SDS_P2;PMS_P1;PMS_P2;Temp;Humidity;BMP_temperature;BMP_pressure;BME280_temperature;BME280_humidity;BME280_pressure;Samples;Min_cycle;Max_cycle;Signal;HPM_P1;HPM_P2
2021/08/03 00:01:04;;;;;;;5.38;3.28;;;14.70;89.40;;;;;;5023104;28;20036;-87
2021/08/03 00:03:38;;;;;;;4.63;3.17;;;14.60;89.50;;;;;;5011659;28;20116;-87
2021/08/03 00:06:09;;;;;;;3.63;2.92;;;14.60;89.80;;;;;;5014424;28;20489;-87
2021/08/03 00:08:39;;;;;;;3.17;2.88;;;14.60;89.90;;;;;;5014562;28;20111;-87
2021/08/03 00:11:07;;;;;;;4.28;3.00;;;14.60;90.00;;;;;;5032358;28;20293;-86
2021/08/03 00:13:35;;;;;;;3.88;2.88;;;14.60;90.00;;;;;;5007634;28;20034;-87
2021/08/03 00:16:09;;;;;;;3.38;2.88;;;14.50;90.00;;;;;;5013482;28;20396;-86
2021/08/03 00:18:40;;;;;;;2.88;2.13;;;14.50;90.10;;;;;;5000464;28;20021;-86
2021/08/03 00:21:08;;;;;;;3.30;2.67;;;14.60;90.20;;;;;;5013866;28;20517;-86
2021/08/03 00:23:36;;;;;;;2.30;2.10;;;14.60;90.20;;;;;;5021743;28;20327;-87
2021/08/03 00:26:02;;;;;;;2.30;2.10;;;14.50;90.10;;;;;;5012608;28;20071;-85
2021/08/03 00:28:28;;;;;;;2.10;1.88;;;14.50;90.20;;;;;;5014815;28;20382;-86
2021/08/03 00:30:54;;;;;;;2.03;1.90;;;14.50;90.20;;;;;;5022130;28;20033;-85
2021/08/03 00:33:20;;;;;;;2.55;2.35;;;14.50;90.30;;;;;;5014511;28;20033;-86
2021/08/03 00:35:49;;;;;;;1.88;1.77;;;14.50;90.20;;;;;;5008896;28;20029;-86
2021/08/03 00:38:16;;;;;;;1.90;1.80;;;14.60;90.40;;;;;;5013480;28;20490;-87
2021/08/03 00:40:58;;;;;;;3.50;2.08;;;14.60;90.30;;;;;;5014312;28;20030;-87
2021/08/03 00:43:24;;;;;;;3.08;2.10;;;14.60;90.40;;;;;;5011558;28;20116;-87
2021/08/03 00:45:49;;;;;;;2.85;2.20;;;14.60;90.30;;;;;;4999409;28;20119;-87
2021/08/03 00:48:15;;;;;;;2.95;2.10;;;14.60;90.30;;;;;;5028413;28;20049;-86
2021/08/03 00:50:42;;;;;;;2.35;2.00;;;14.60;90.40;;;;;;5030917;28;20044;-86
2021/08/03 00:53:08;;;;;;;3.22;1.95;;;14.60;90.30;;;;;;5014686;28;20036;-87
2021/08/03 00:55:36;;;;;;;2.35;2.13;;;14.60;90.30;;;;;;4998662;28;20437;-86
2021/08/03 00:58:02;;;;;;;3.40;2.00;;;14.60;90.30;;;;;;5014242;28;20036;-86
2021/08/03 01:00:28;;;;;;;4.05;1.83;;;14.50;90.30;;;;;;5052669;28;20025;-83
2021/08/03 01:02:54;;;;;;;1.77;1.65;;;14.50;90.40;;;;;;5046353;28;20101;-84
2021/08/03 01:05:20;;;;;;;2.65;2.22;;;14.50;90.50;;;;;;5038410;28;20094;-84
2021/08/03 01:07:57;;;;;;;2.00;1.80;;;14.50;90.50;;;;;;5037867;28;20021;-84
2021/08/03 01:11:02;;;;;;;2.15;1.95;;;14.50;90.60;;;;;;5036932;28;20029;-84
2021/08/03 01:13:53;;;;;;;2.03;1.88;;;14.50;90.60;;;;;;5054762;28;20014;-84
2021/08/03 01:16:22;;;;;;;2.55;1.58;;;14.40;90.50;;;;;;5038035;28;20037;-83
2021/08/03 01:19:17;;;;;;;1.70;1.60;;;14.40;90.50;;;;;;5038461;28;20032;-84
2021/08/03 01:21:50;;;;;;;2.33;1.40;;;14.40;90.50;;;;;;5053263;28;20056;-84
2021/08/03 01:24:23;;;;;;;2.05;1.90;;;14.40;90.50;;;;;;5048350;28;20020;-85
2021/08/03 01:27:27;;;;;;;1.80;1.65;;;14.30;90.50;;;;;;5038146;28;20063;-85
2021/08/03 01:29:54;;;;;;;1.75;1.65;;;14.40;90.70;;;;;;5038611;28;20331;-84
2021/08/03 01:32:27;;;;;;;2.63;1.67;;;14.40;90.60;;;;;;5037736;28;20028;-84
2021/08/03 01:34:55;;;;;;;5.18;1.40;;;14.50;90.80;;;;;;5031930;28;20029;-83
2021/08/03 01:37:22;;;;;;;3.42;2.08;;;14.50;90.70;;;;;;5036073;28;20030;-84
2021/08/03 01:39:55;;;;;;;2.78;1.70;;;14.50;90.70;;;;;;5024288;28;20025;-86
2021/08/03 01:42:24;;;;;;;2.00;1.65;;;14.50;90.70;;;;;;5033458;28;20109;-87
2021/08/03 01:44:51;;;;;;;2.63;1.73;;;14.40;90.70;;;;;;5026949;28;20520;-87
2021/08/03 01:47:18;;;;;;;2.08;1.80;;;14.50;90.70;;;;;;5012575;28;20017;-87
2021/08/03 01:49:46;;;;;;;1.77;1.63;;;14.40;90.50;;;;;;5000882;28;20061;-87
2021/08/03 01:52:12;;;;;;;2.63;1.95;;;14.40;90.60;;;;;;5050327;28;20137;-85
2021/08/03 01:54:39;;;;;;;2.17;1.65;;;14.40;90.60;;;;;;5034297;28;20024;-84
2021/08/03 01:57:06;;;;;;;2.20;1.73;;;14.40;90.70;;;;;;5032165;28;20033;-85
2021/08/03 01:59:33;;;;;;;2.72;1.90;;;14.40;90.70;;;;;;5013734;28;20104;-86
2021/08/03 02:02:00;;;;;;;2.65;2.00;;;14.40;90.60;;;;;;5004250;28;20128;-86
2021/08/03 02:04:27;;;;;;;2.05;1.85;;;14.30;90.60;;;;;;5026355;28;20025;-87
2021/08/03 02:06:54;;;;;;;3.28;2.70;;;14.20;90.70;;;;;;5022319;28;20014;-84
2021/08/03 02:09:21;;;;;;;2.88;2.50;;;14.20;90.70;;;;;;5045411;28;20108;-86
2021/08/03 02:11:49;;;;;;;2.97;2.30;;;14.30;90.80;;;;;;5032045;28;20497;-86
2021/08/03 02:14:16;;;;;;;2.50;2.30;;;14.20;90.80;;;;;;5026601;28;20045;-86
2021/08/03 02:16:42;;;;;;;3.67;2.80;;;14.20;90.70;;;;;;5009438;28;20026;-86
2021/08/03 02:19:08;;;;;;;3.25;2.45;;;14.10;90.80;;;;;;5007923;28;20025;-86
2021/08/03 02:21:34;;;;;;;2.47;2.22;;;14.10;90.80;;;;;;5029372;28;20032;-87
2021/08/03 02:23:59;;;;;;;4.95;2.45;;;14.10;90.90;;;;;;5031445;28;20080;-87
2021/08/03 02:26:25;;;;;;;2.55;2.17;;;14.10;90.90;;;;;;5009076;28;20042;-86
2021/08/03 02:28:51;;;;;;;2.58;2.22;;;14.10;90.90;;;;;;5019320;28;20036;-86
2021/08/03 02:31:42;;;;;;;2.20;2.00;;;14.10;91.00;;;;;;4994706;28;20290;-87
2021/08/03 02:34:15;;;;;;;2.00;1.90;;;14.10;91.10;;;;;;5029912;28;20033;-86
2021/08/03 02:36:46;;;;;;;2.65;2.22;;;14.10;91.10;;;;;;5037815;28;20434;-84
2021/08/03 02:39:13;;;;;;;3.10;2.00;;;14.10;91.10;;;;;;5012518;28;20039;-86
2021/08/03 02:41:40;;;;;;;2.35;1.92;;;14.20;91.20;;;;;;5013057;28;20091;-85
2021/08/03 02:44:07;;;;;;;2.22;1.88;;;14.20;91.20;;;;;;5012952;28;20025;-87
2021/08/03 02:46:33;;;;;;;1.80;1.70;;;14.20;91.20;;;;;;5010686;28;20053;-87
2021/08/03 02:49:04;;;;;;;1.67;1.58;;;14.20;91.10;;;;;;5029497;28;20276;-87
2021/08/03 02:51:38;;;;;;;1.95;1.85;;;14.20;91.10;;;;;;5012747;28;20038;-86
2021/08/03 02:54:26;;;;;;;2.90;1.80;;;14.30;91.20;;;;;;5010993;28;20034;-86
2021/08/03 02:56:55;;;;;;;2.22;1.60;;;14.20;91.10;;;;;;5025567;28;20061;-86
2021/08/03 02:59:24;;;;;;;5.03;1.58;;;14.30;91.10;;;;;;5017866;28;20051;-86
2021/08/03 03:01:52;;;;;;;1.60;1.50;;;14.30;91.10;;;;;;5037550;23;20045;-67
2021/08/03 03:04:25;;;;;;;2.83;1.40;;;14.30;91.10;;;;;;4995957;28;20021;-67
2021/08/03 03:07:01;;;;;;;1.30;1.20;;;14.30;91.20;;;;;;5000713;28;20100;-67
2021/08/03 03:09:29;;;;;;;2.08;1.23;;;14.40;91.20;;;;;;4995299;28;20502;-67
2021/08/03 03:11:57;;;;;;;1.48;1.20;;;14.40;91.10;;;;;;4977921;28;20590;-67
2021/08/03 03:14:24;;;;;;;2.47;1.27;;;14.40;91.10;;;;;;4997847;28;20029;-67
2021/08/03 03:16:54;;;;;;;1.10;1.10;;;14.40;91.10;;;;;;5004467;28;20030;-67
2021/08/03 03:19:21;;;;;;;1.52;1.42;;;14.40;91.10;;;;;;4997293;28;20054;-67
2021/08/03 03:21:48;;;;;;;2.22;1.60;;;14.40;91.10;;;;;;4994858;28;20459;-67
2021/08/03 03:24:15;;;;;;;1.50;1.40;;;14.40;91.10;;;;;;4994436;28;20034;-67
2021/08/03 03:26:43;;;;;;;1.92;1.25;;;14.40;91.00;;;;;;4993241;28;20384;-67
2021/08/03 03:29:09;;;;;;;1.85;1.30;;;14.40;91.10;;;;;;4994300;28;20027;-67
2021/08/03 03:31:36;;;;;;;1.83;1.42;;;14.40;91.00;;;;;;4996419;28;20029;-67
2021/08/03 03:34:04;;;;;;;1.75;1.60;;;14.40;91.30;;;;;;4997096;28;20339;-67
2021/08/03 03:36:33;;;;;;;1.30;1.20;;;14.40;91.10;;;;;;4995466;28;20026;-67
2021/08/03 03:39:01;;;;;;;1.67;1.58;;;14.30;91.10;;;;;;5002376;28;20022;-67
2021/08/03 03:41:28;;;;;;;1.38;1.27;;;14.30;91.10;;;;;;4989388;28;20156;-67
2021/08/03 03:43:54;;;;;;;1.70;1.58;;;14.20;91.00;;;;;;4993829;28;20026;-67
2021/08/03 03:46:25;;;;;;;4.68;1.55;;;14.20;91.00;;;;;;4992818;28;20505;-67
2021/08/03 03:49:02;;;;;;;3.03;1.60;;;14.20;91.30;;;;;;4993294;28;20065;-67
2021/08/03 03:51:30;;;;;;;1.42;1.33;;;14.20;91.10;;;;;;5005840;28;20533;-67
2021/08/03 03:54:01;;;;;;;1.65;1.52;;;14.10;91.10;;;;;;4977361;28;20081;-67
2021/08/03 03:56:31;;;;;;;2.05;1.50;;;14.10;91.10;;;;;;4992529;28;20030;-67
2021/08/03 03:59:01;;;;;;;1.85;1.70;;;14.10;91.10;;;;;;4994062;28;20038;-67
2021/08/03 04:01:28;;;;;;;4.63;1.85;;;14.10;91.10;;;;;;4992633;28;20089;-67
2021/08/03 04:04:01;;;;;;;1.98;1.45;;;14.00;91.10;;;;;;4996365;28;20482;-67
2021/08/03 04:06:27;;;;;;;3.65;1.77;;;14.00;91.10;;;;;;4999021;28;20030;-67
2021/08/03 04:08:52;;;;;;;2.78;1.70;;;14.00;91.10;;;;;;4992710;28;20087;-67
2021/08/03 04:11:18;;;;;;;3.08;1.60;;;14.00;91.10;;;;;;5006680;28;20065;-67
2021/08/03 04:13:46;;;;;;;2.08;1.40;;;13.90;91.10;;;;;;5002150;28;20022;-67
2021/08/03 04:16:12;;;;;;;3.50;1.80;;;13.90;91.10;;;;;;4991857;28;20031;-67
2021/08/03 04:18:37;;;;;;;2.25;1.52;;;13.90;91.20;;;;;;4993204;28;20049;-67
2021/08/03 04:21:03;;;;;;;3.05;1.67;;;13.90;91.20;;;;;;4993706;28;20026;-67
2021/08/03 04:23:29;;;;;;;3.13;1.70;;;13.90;91.20;;;;;;4992865;28;20164;-67
2021/08/03 04:25:55;;;;;;;2.20;1.60;;;14.00;91.20;;;;;;4991122;28;20495;-67
2021/08/03 04:28:20;;;;;;;3.83;1.55;;;14.00;91.20;;;;;;4986462;28;20030;-67
2021/08/03 04:30:46;;;;;;;7.70;1.40;;;13.90;91.20;;;;;;4991378;28;20038;-67
2021/08/03 04:33:12;;;;;;;2.35;1.60;;;13.90;91.20;;;;;;4992700;28;20081;-67
2021/08/03 04:35:38;;;;;;;4.13;1.92;;;13.90;91.20;;;;;;5005683;28;20065;-67
2021/08/03 04:38:03;;;;;;;3.13;1.67;;;13.90;91.20;;;;;;4994575;28;20034;-67
2021/08/03 04:40:29;;;;;;;6.97;1.67;;;13.90;91.30;;;;;;4990924;28;20031;-67
2021/08/03 04:42:55;;;;;;;5.20;1.45;;;13.90;91.30;;;;;;4989367;28;20566;-67
2021/08/03 04:45:21;;;;;;;1.50;1.40;;;13.90;91.30;;;;;;4992195;28;20025;-67
2021/08/03 04:47:49;;;;;;;3.70;1.77;;;13.90;91.30;;;;;;4980533;28;20476;-67
2021/08/03 04:50:17;;;;;;;2.17;1.52;;;13.90;91.40;;;;;;4986371;28;20037;-67
2021/08/03 04:52:43;;;;;;;3.97;1.77;;;14.00;91.40;;;;;;4995649;28;20538;-67
2021/08/03 04:55:09;;;;;;;1.88;1.75;;;14.00;91.40;;;;;;4988124;28;20114;-67
2021/08/03 04:57:35;;;;;;;2.67;1.92;;;14.00;91.40;;;;;;4985166;28;20022;-67
2021/08/03 05:00:01;;;;;;;2.42;2.22;;;14.10;91.40;;;;;;4992712;28;20023;-67
2021/08/03 05:02:27;;;;;;;3.08;2.20;;;14.10;91.40;;;;;;4991858;28;20050;-67
2021/08/03 05:04:52;;;;;;;6.55;2.65;;;14.10;91.40;;;;;;4993290;28;20080;-67
2021/08/03 05:07:18;;;;;;;5.45;2.45;;;14.20;91.40;;;;;;4992016;28;20025;-67
2021/08/03 05:09:43;;;;;;;5.25;2.47;;;14.20;91.40;;;;;;4988444;28;20030;-67
2021/08/03 05:12:09;;;;;;;5.20;2.60;;;14.30;91.40;;;;;;4992261;28;20034;-67
2021/08/03 05:14:34;;;;;;;4.97;2.83;;;14.30;91.30;;;;;;4998622;28;20033;-67
2021/08/03 05:17:00;;;;;;;4.07;3.15;;;14.30;91.30;;;;;;4976411;28;20371;-67
2021/08/03 05:19:26;;;;;;;5.00;2.88;;;14.30;91.30;;;;;;4992757;28;20037;-67
2021/08/03 05:21:51;;;;;;;3.55;3.13;;;14.20;91.20;;;;;;4985197;28;20026;-67
2021/08/03 05:24:17;;;;;;;3.10;2.67;;;14.20;91.30;;;;;;4992857;28;20030;-67
2021/08/03 05:26:43;;;;;;;3.33;2.50;;;14.20;91.30;;;;;;4987207;28;20080;-67
2021/08/03 05:29:08;;;;;;;4.13;3.00;;;14.20;91.30;;;;;;4991005;28;20101;-67
2021/08/03 05:31:34;;;;;;;4.07;3.20;;;14.20;91.40;;;;;;4991396;28;20022;-67
2021/08/03 05:34:01;;;;;;;3.78;3.08;;;14.20;91.30;;;;;;4987301;28;20034;-66
2021/08/03 05:36:27;;;;;;;5.63;3.47;;;14.20;91.30;;;;;;4989842;28;20117;-67
2021/08/03 05:38:52;;;;;;;4.47;3.55;;;14.20;91.30;;;;;;4995953;28;20101;-66
2021/08/03 05:41:18;;;;;;;5.90;3.72;;;14.20;91.30;;;;;;4989011;28;20030;-67
2021/08/03 05:43:43;;;;;;;5.25;2.75;;;14.30;91.30;;;;;;4990959;28;20031;-67
2021/08/03 05:46:09;;;;;;;5.70;2.67;;;14.30;91.40;;;;;;4989563;28;20483;-66
2021/08/03 05:48:35;;;;;;;6.45;2.92;;;14.30;91.40;;;;;;4991429;28;20775;-66
2021/08/03 05:51:00;;;;;;;3.17;2.90;;;14.30;91.30;;;;;;4992048;28;20065;-67
2021/08/03 05:53:26;;;;;;;3.78;2.65;;;14.30;91.30;;;;;;4991248;28;20505;-66
2021/08/03 05:55:51;;;;;;;3.05;2.45;;;14.30;91.40;;;;;;4990216;28;20166;-67
2021/08/03 05:58:17;;;;;;;2.30;2.10;;;14.40;91.50;;;;;;4992234;28;20065;-67
2021/08/03 06:00:44;;;;;;;3.58;2.20;;;14.40;91.50;;;;;;4981298;28;20085;-67
2021/08/03 06:03:10;;;;;;;2.17;2.03;;;14.50;91.70;;;;;;4983964;28;20542;-67
2021/08/03 06:05:37;;;;;;;3.17;1.92;;;14.50;91.40;;;;;;4990117;28;20026;-68
2021/08/03 06:08:05;;;;;;;7.80;4.13;;;14.50;91.30;;;;;;4991292;28;20403;-67
2021/08/03 06:10:32;;;;;;;5.40;2.63;;;14.60;91.30;;;;;;4988270;28;20032;-67
2021/08/03 06:12:59;;;;;;;3.97;1.90;;;14.60;91.30;;;;;;4986809;28;20054;-66
2021/08/03 06:15:27;;;;;;;2.17;1.65;;;14.70;91.30;;;;;;4971801;28;20037;-68
2021/08/03 06:18:07;;;;;;;2.72;1.80;;;14.70;91.40;;;;;;4974856;28;20479;-67
2021/08/03 06:20:34;;;;;;;1.90;1.70;;;14.80;91.50;;;;;;4988608;28;20030;-66
2021/08/03 06:23:00;;;;;;;1.70;1.60;;;14.80;91.50;;;;;;4988638;28;20185;-67
2021/08/03 06:25:26;;;;;;;2.33;1.52;;;14.90;91.40;;;;;;4984034;28;20030;-67
2021/08/03 06:27:53;;;;;;;4.47;2.00;;;14.90;91.20;;;;;;4991649;28;20052;-66
2021/08/03 06:30:19;;;;;;;1.98;1.75;;;14.90;91.20;;;;;;4987680;28;20489;-66
2021/08/03 06:32:45;;;;;;;2.63;1.85;;;14.90;91.20;;;;;;4990815;28;20050;-66
2021/08/03 06:35:11;;;;;;;4.18;2.10;;;15.00;91.20;;;;;;4989994;28;20057;-65
2021/08/03 06:37:37;;;;;;;2.10;1.83;;;15.00;91.20;;;;;;4991541;28;20486;-66
2021/08/03 06:40:04;;;;;;;2.20;2.00;;;15.10;91.30;;;;;;4991657;28;20055;-66
2021/08/03 06:42:51;;;;;;;2.58;2.20;;;15.20;91.30;;;;;;4991508;28;20076;-66
2021/08/03 06:45:24;;;;;;;2.40;1.73;;;15.20;91.30;;;;;;4990693;28;20019;-66
2021/08/03 06:47:57;;;;;;;8.50;4.90;;;15.30;91.20;;;;;;4990015;28;20430;-66
2021/08/03 06:50:28;;;;;;;4.03;1.92;;;15.30;91.10;;;;;;4991303;28;20374;-67
2021/08/03 06:52:55;;;;;;;3.47;1.20;;;15.30;91.10;;;;;;4990642;28;20050;-68
2021/08/03 06:55:29;;;;;;;1.80;1.67;;;15.40;91.00;;;;;;4990722;28;20097;-66
2021/08/03 06:58:00;;;;;;;2.90;1.42;;;15.50;91.00;;;;;;4991062;28;20022;-66
2021/08/03 07:00:39;;;;;;;2.00;1.80;;;15.60;91.00;;;;;;4990762;28;20610;-68
2021/08/03 07:03:07;;;;;;;3.00;1.30;;;15.70;90.90;;;;;;4990178;28;20026;-67
2021/08/03 07:05:34;;;;;;;2.17;1.58;;;15.80;90.80;;;;;;4990439;28;20026;-67
2021/08/03 07:08:00;;;;;;;5.50;1.90;;;15.90;90.60;;;;;;4990962;28;20026;-66
2021/08/03 07:10:27;;;;;;;1.70;1.20;;;16.00;90.50;;;;;;4991453;28;20049;-66
2021/08/03 07:12:54;;;;;;;3.88;2.67;;;16.00;90.50;;;;;;4990280;28;20030;-67
2021/08/03 07:15:20;;;;;;;1.15;1.05;;;16.10;90.40;;;;;;4990577;28;20030;-67
2021/08/03 07:17:47;;;;;;;1.58;1.00;;;16.20;90.10;;;;;;4990860;28;20042;-66
2021/08/03 07:20:14;;;;;;;1.10;1.08;;;16.20;90.00;;;;;;4991329;28;20037;-66
2021/08/03 07:22:41;;;;;;;1.58;1.25;;;16.30;90.00;;;;;;4990114;28;20034;-66
2021/08/03 07:25:08;;;;;;;1.60;1.20;;;16.40;89.80;;;;;;4990084;28;20031;-66
2021/08/03 07:27:34;;;;;;;2.58;1.10;;;16.60;89.70;;;;;;4990861;28;20088;-66
2021/08/03 07:29:59;;;;;;;1.10;1.10;;;16.80;89.30;;;;;;4991525;28;20395;-66
2021/08/03 07:32:25;;;;;;;2.00;0.98;;;17.10;88.50;;;;;;4987633;28;20030;-69
2021/08/03 07:34:50;;;;;;;1.00;0.80;;;17.30;88.20;;;;;;4988869;28;20026;-67
2021/08/03 07:37:17;;;;;;;1.25;1.08;;;17.50;88.00;;;;;;4990615;28;20026;-66
2021/08/03 07:39:43;;;;;;;1.40;1.00;;;17.70;87.60;;;;;;4991396;28;20041;-68
2021/08/03 07:42:09;;;;;;;1.35;1.00;;;17.90;86.70;;;;;;4990913;28;20023;-66
2021/08/03 07:44:36;;;;;;;1.33;0.80;;;18.00;86.20;;;;;;4990946;28;20057;-69
2021/08/03 07:47:02;;;;;;;1.00;0.88;;;18.00;85.90;;;;;;4994563;28;20101;-67
2021/08/03 07:49:28;;;;;;;0.93;0.82;;;18.00;86.00;;;;;;4994312;28;20026;-66
2021/08/03 07:51:53;;;;;;;0.60;0.60;;;18.10;86.00;;;;;;4994736;28;20027;-68
2021/08/03 07:54:19;;;;;;;1.52;0.85;;;18.20;85.70;;;;;;4994554;28;20031;-66
2021/08/03 07:56:45;;;;;;;1.67;1.02;;;18.30;85.30;;;;;;4993278;28;20386;-66
2021/08/03 07:59:11;;;;;;;1.00;0.90;;;18.20;85.30;;;;;;4994076;28;20034;-67
2021/08/03 08:01:37;;;;;;;2.33;1.40;;;18.20;85.10;;;;;;4994151;28;20506;-66
2021/08/03 08:04:03;;;;;;;2.83;1.20;;;18.00;84.80;;;;;;4994339;28;20097;-68
2021/08/03 08:06:29;;;;;;;1.00;1.00;;;18.00;85.20;;;;;;4992446;28;20027;-67
2021/08/03 08:08:54;;;;;;;1.75;0.98;;;18.00;85.30;;;;;;4994510;28;20483;-66
2021/08/03 08:11:20;;;;;;;2.63;1.05;;;18.00;85.10;;;;;;4994418;28;20486;-68
2021/08/03 08:13:45;;;;;;;1.77;1.02;;;17.90;85.20;;;;;;4994163;28;20031;-66
2021/08/03 08:16:11;;;;;;;1.00;0.90;;;17.90;85.30;;;;;;4993375;28;20110;-66
2021/08/03 08:18:37;;;;;;;2.60;0.90;;;17.90;85.40;;;;;;4993126;28;20073;-67
2021/08/03 08:21:03;;;;;;;1.40;0.90;;;18.00;85.60;;;;;;4978116;28;20129;-67
2021/08/03 08:23:29;;;;;;;1.45;1.10;;;18.10;85.20;;;;;;4988890;28;20105;-68
2021/08/03 08:25:55;;;;;;;4.57;0.90;;;18.20;85.00;;;;;;4993145;28;20388;-66
2021/08/03 08:28:21;;;;;;;1.38;0.93;;;18.10;84.90;;;;;;4993768;28;20026;-67
2021/08/03 08:30:47;;;;;;;1.52;0.80;;;18.20;85.00;;;;;;4992459;28;20022;-68
2021/08/03 08:33:12;;;;;;;1.90;0.90;;;18.30;85.00;;;;;;4993445;28;20061;-67
2021/08/03 08:35:38;;;;;;;1.00;0.98;;;18.30;84.70;;;;;;4992860;28;20058;-66
2021/08/03 08:38:04;;;;;;;5.95;1.00;;;18.30;84.50;;;;;;4994277;28;20037;-66
2021/08/03 08:40:30;;;;;;;4.20;0.75;;;18.30;84.50;;;;;;4993801;28;20038;-67
2021/08/03 08:42:56;;;;;;;2.85;0.90;;;18.30;84.40;;;;;;4993777;28;20033;-66
2021/08/03 08:45:21;;;;;;;1.42;0.93;;;18.30;84.50;;;;;;4993249;28;20394;-67
2021/08/03 08:47:49;;;;;;;0.95;0.88;;;18.30;84.40;;;;;;4993549;28;20386;-67
2021/08/03 08:50:20;;;;;;;1.30;0.80;;;18.20;84.20;;;;;;4994107;28;20026;-67
2021/08/03 08:52:49;;;;;;;3.88;0.80;;;18.20;83.90;;;;;;4994118;28;20026;-67
2021/08/03 08:55:15;;;;;;;0.80;0.80;;;18.20;84.30;;;;;;4992653;28;20041;-67
2021/08/03 08:57:41;;;;;;;2.20;1.27;;;18.30;84.40;;;;;;4989266;28;20503;-67
2021/08/03 09:00:08;;;;;;;2.38;1.00;;;18.40;84.10;;;;;;4978288;28;20039;-67
2021/08/03 09:02:45;;;;;;;1.10;1.00;;;18.50;83.70;;;;;;5009735;23;20038;-68
2021/08/03 09:05:16;;;;;;;1.00;0.90;;;18.60;83.50;;;;;;4991734;28;20121;-67
2021/08/03 09:07:59;;;;;;;1.33;0.90;;;19.00;82.90;;;;;;4992589;28;20029;-68
2021/08/03 09:10:49;;;;;;;1.42;1.00;;;19.20;82.30;;;;;;4992997;28;20054;-68
2021/08/03 09:13:22;;;;;;;1.23;1.13;;;19.20;82.40;;;;;;4992763;28;20050;-67
2021/08/03 09:15:59;;;;;;;1.00;0.90;;;19.20;82.70;;;;;;4991672;28;20022;-67
2021/08/03 09:18:36;;;;;;;1.42;0.70;;;19.30;82.10;;;;;;4992069;28;20378;-67
2021/08/03 09:21:02;;;;;;;1.42;0.75;;;19.30;81.90;;;;;;4992662;28;20034;-68
2021/08/03 09:23:45;;;;;;;0.98;0.80;;;19.40;82.00;;;;;;4992753;28;20415;-68
2021/08/03 09:26:12;;;;;;;1.55;0.90;;;19.60;81.50;;;;;;4974114;28;20018;-67
2021/08/03 09:29:04;;;;;;;1.48;0.93;;;19.70;81.40;;;;;;4992210;28;20037;-68
2021/08/03 09:31:34;;;;;;;2.30;0.80;;;19.80;81.30;;;;;;4992401;28;20030;-68
2021/08/03 09:34:08;;;;;;;0.90;0.90;;;19.80;80.90;;;;;;4985348;28;20026;-68
2021/08/03 09:36:50;;;;;;;1.88;1.10;;;19.80;80.10;;;;;;4991123;28;20466;-68
2021/08/03 09:39:42;;;;;;;0.95;0.90;;;19.80;79.30;;;;;;4978890;28;20038;-68
2021/08/03 09:42:15;;;;;;;1.05;0.85;;;19.70;79.80;;;;;;4991266;28;20100;-68
2021/08/03 09:44:46;;;;;;;1.10;1.02;;;19.70;80.20;;;;;;4973544;28;20026;-68
2021/08/03 09:47:12;;;;;;;1.08;1.00;;;19.80;79.80;;;;;;4991861;28;20030;-67
2021/08/03 09:49:40;;;;;;;0.98;0.77;;;19.80;80.10;;;;;;4991831;28;20023;-67
2021/08/03 09:52:08;;;;;;;2.28;0.80;;;19.80;79.50;;;;;;4992246;28;20447;-68
2021/08/03 09:54:35;;;;;;;0.70;0.70;;;19.90;78.90;;;;;;4991137;28;20030;-68
2021/08/03 09:57:16;;;;;;;0.98;0.80;;;20.00;78.80;;;;;;4987400;28;20475;-68
2021/08/03 09:59:42;;;;;;;0.93;0.77;;;20.10;78.70;;;;;;4989118;28;20037;-68
2021/08/03 10:02:16;;;;;;;0.98;0.80;;;20.20;78.80;;;;;;4991392;28;20483;-68
2021/08/03 10:04:43;;;;;;;0.80;0.80;;;20.30;78.50;;;;;;4990727;28;20026;-68
2021/08/03 10:07:09;;;;;;;1.00;0.93;;;20.40;77.80;;;;;;4991090;28;20124;-68
2021/08/03 10:09:35;;;;;;;2.63;1.10;;;20.40;77.60;;;;;;4992047;28;20101;-68
2021/08/03 10:12:01;;;;;;;0.68;0.68;;;20.40;77.90;;;;;;4991060;28;20105;-68
2021/08/03 10:14:26;;;;;;;0.68;0.68;;;20.30;77.50;;;;;;4991623;28;20049;-68
2021/08/03 10:16:53;;;;;;;2.08;1.17;;;20.20;76.80;;;;;;4990731;28;20026;-67
2021/08/03 10:19:25;;;;;;;1.42;1.20;;;20.00;77.10;;;;;;4991895;28;20097;-67
2021/08/03 10:22:14;;;;;;;1.10;0.90;;;19.90;77.70;;;;;;4991139;28;20042;-68
2021/08/03 10:24:48;;;;;;;1.13;0.82;;;19.80;78.60;;;;;;4990619;28;20030;-68
2021/08/03 10:27:15;;;;;;;1.15;1.00;;;19.60;78.30;;;;;;4981050;28;20038;-67
2021/08/03 10:29:47;;;;;;;5.65;4.65;;;19.50;78.60;;;;;;4984947;28;20023;-67
2021/08/03 10:32:49;;;;;;;1.15;0.80;;;19.50;78.60;;;;;;4991179;28;20030;-67
2021/08/03 10:35:17;;;;;;;1.33;0.98;;;19.30;78.60;;;;;;4930243;29;20086;-68
2021/08/03 10:38:00;;;;;;;0.70;0.70;;;19.20;78.90;;;;;;4980275;28;20042;-68
2021/08/03 10:40:44;;;;;;;2.08;1.25;;;19.00;79.80;;;;;;4981248;28;20057;-68
2021/08/03 10:43:24;;;;;;;1.10;1.00;;;18.90;80.80;;;;;;4991478;28;20076;-68
2021/08/03 10:46:10;;;;;;;2.50;2.00;;;18.70;80.50;;;;;;4983535;28;20023;-68
2021/08/03 10:48:38;;;;;;;2.97;1.15;;;18.60;81.10;;;;;;4991362;28;20033;-68
2021/08/03 10:51:13;;;;;;;3.05;1.25;;;18.30;81.40;;;;;;4991187;28;20054;-67
2021/08/03 10:54:01;;;;;;;1.55;1.40;;;18.20;82.50;;;;;;4991394;28;20022;-67
2021/08/03 10:56:28;;;;;;;5.25;1.20;;;18.00;83.30;;;;;;4982463;28;20026;-68
2021/08/03 10:59:32;;;;;;;2.25;1.30;;;18.00;83.60;;;;;;4973882;28;20069;-68
2021/08/03 11:01:59;;;;;;;2.50;1.10;;;17.90;84.50;;;;;;4978525;28;20019;-68
2021/08/03 11:04:43;;;;;;;1.05;0.75;;;17.90;84.40;;;;;;4986455;28;20022;-67
2021/08/03 11:07:31;;;;;;;2.35;1.10;;;17.90;84.90;;;;;;4991081;28;20696;-67
2021/08/03 11:10:25;;;;;;;1.85;1.13;;;17.90;85.30;;;;;;4991141;28;20034;-67
2021/08/03 11:12:52;;;;;;;1.35;1.00;;;17.90;85.60;;;;;;4991194;28;20033;-67
2021/08/03 11:15:38;;;;;;;2.30;1.10;;;17.90;85.70;;;;;;4988300;28;20066;-67
2021/08/03 11:18:13;;;;;;;1.95;1.02;;;18.00;86.30;;;;;;4973554;28;20031;-67
2021/08/03 11:20:41;;;;;;;1.13;1.00;;;18.20;86.90;;;;;;4993840;28;20030;-67
2021/08/03 11:23:09;;;;;;;1.85;1.30;;;18.40;86.60;;;;;;4977477;28;20026;-67
2021/08/03 11:25:35;;;;;;;0.98;0.80;;;18.50;86.70;;;;;;4994033;28;20027;-67
2021/08/03 11:28:14;;;;;;;3.20;0.90;;;18.70;86.20;;;;;;4994755;28;20018;-67
2021/08/03 11:30:41;;;;;;;1.30;1.20;;;18.80;86.10;;;;;;4977017;28;20042;-67
2021/08/03 11:33:07;;;;;;;1.15;1.02;;;18.80;85.10;;;;;;4994705;28;20490;-67
2021/08/03 11:35:34;;;;;;;0.82;0.82;;;18.80;85.20;;;;;;4993327;28;20034;-67
2021/08/03 11:38:14;;;;;;;0.80;0.80;;;18.80;85.50;;;;;;4992988;28;20112;-67
2021/08/03 11:40:41;;;;;;;1.15;0.90;;;18.90;85.20;;;;;;4994783;28;20030;-67
2021/08/03 11:43:07;;;;;;;0.85;0.80;;;19.00;84.90;;;;;;4994279;28;20109;-67
2021/08/03 11:45:37;;;;;;;0.70;0.70;;;19.10;85.10;;;;;;4993879;28;20111;-67
2021/08/03 11:48:24;;;;;;;0.90;0.90;;;19.30;85.00;;;;;;4994297;28;20441;-67
2021/08/03 11:50:50;;;;;;;1.23;1.13;;;19.40;84.80;;;;;;4994720;28;20032;-67
2021/08/03 11:53:18;;;;;;;0.90;0.90;;;19.60;84.10;;;;;;4994165;28;20037;-67
2021/08/03 11:55:50;;;;;;;1.40;0.90;;;19.70;83.60;;;;;;4992752;28;20033;-67
2021/08/03 11:58:19;;;;;;;0.63;0.63;;;19.80;83.60;;;;;;4980419;28;20232;-67
2021/08/03 12:00:45;;;;;;;0.80;0.70;;;19.90;83.80;;;;;;4993831;28;20102;-67
2021/08/03 12:03:10;;;;;;;1.45;1.00;;;20.00;83.10;;;;;;4993798;28;20547;-68
2021/08/03 12:05:38;;;;;;;1.90;0.75;;;20.10;82.30;;;;;;4975668;28;20019;-67
2021/08/03 12:08:12;;;;;;;0.82;0.80;;;20.00;81.20;;;;;;4993871;28;20475;-67
2021/08/03 12:10:43;;;;;;;2.85;0.70;;;20.10;81.40;;;;;;4984235;28;20501;-67
2021/08/03 12:13:26;;;;;;;0.70;0.70;;;20.10;81.10;;;;;;4975448;28;20380;-68
2021/08/03 12:15:54;;;;;;;1.02;0.80;;;20.10;80.70;;;;;;4993158;28;20029;-68
2021/08/03 12:18:21;;;;;;;0.80;0.80;;;20.20;81.30;;;;;;4993834;28;20057;-67
2021/08/03 12:20:49;;;;;;;0.70;0.70;;;20.20;81.20;;;;;;4993915;28;20034;-67
2021/08/03 12:23:29;;;;;;;0.70;0.70;;;20.40;81.10;;;;;;4976388;28;20391;-67
2021/08/03 12:25:58;;;;;;;0.70;0.70;;;20.50;80.90;;;;;;4992995;28;20434;-67
2021/08/03 12:28:32;;;;;;;1.13;0.90;;;20.80;80.60;;;;;;4993406;28;20030;-67
2021/08/03 12:31:17;;;;;;;0.82;0.82;;;20.90;79.90;;;;;;4987003;28;20069;-67
2021/08/03 12:33:43;;;;;;;0.82;0.82;;;21.00;79.60;;;;;;4986463;28;20376;-68
2021/08/03 12:36:15;;;;;;;0.70;0.70;;;21.00;79.30;;;;;;4992698;28;20097;-67
2021/08/03 12:38:41;;;;;;;;;;;21.00;79.30;;;;;;4993695;28;20058;-67
2021/08/03 12:41:20;;;;;;;0.82;0.80;;;21.10;79.50;;;;;;4993807;28;19909;-67
2021/08/03 12:43:47;;;;;;;0.98;0.98;;;21.00;79.40;;;;;;4993351;28;20529;-68
2021/08/03 12:46:13;;;;;;;1.77;1.05;;;21.00;79.50;;;;;;4992621;28;20714;-67
2021/08/03 12:48:50;;;;;;;0.95;0.90;;;21.20;79.20;;;;;;4991520;28;20114;-67
2021/08/03 12:51:26;;;;;;;1.10;1.00;;;21.40;79.00;;;;;;4993465;28;20089;-67
2021/08/03 12:53:52;;;;;;;1.02;0.90;;;21.40;78.60;;;;;;4993477;28;20032;-67
2021/08/03 12:56:36;;;;;;;1.10;0.82;;;21.40;78.60;;;;;;4991752;28;20402;-67
2021/08/03 12:59:01;;;;;;;2.10;1.38;;;21.50;78.20;;;;;;4992743;28;20114;-67
2021/08/03 13:01:27;;;;;;;0.90;0.90;;;21.50;78.30;;;;;;4992612;28;20030;-67